Time;durP1;ratioP1;P1;durP2;ratioP2;P2;SDS_P1;SDS_P2;PMS_P1;PMS_P2;Temp;Humidity;BMP_temperature;BMP_pressure;BME280_temperature;BME280_humidity;BME280_pressure;Samples;Min_cycle;Max_cycle;Signal;HPM_P1;HPM_P2
2020/04/05 00:01:17;;;;;;;16.5;13.8;;;;;;;4.58;70.60254;944.0577;;;;
2020/04/05 00:03:42;;;;;;;16.4;14.6;;;;;;;4.5;70.78125;944.0505;;;;
2020/04/05 00:06:07;;;;;;;18.4;14.1;;;;;;;4.31;71.60449;944.0478;;;;
2020/04/05 00:08:32;;;;;;;18;14.7;;;;;;;4.45;71.12109;944.063;;;;
2020/04/05 00:10:57;;;;;;;19.5;16.3;;;;;;;4.39;71.05566;944.0092;;;;
2020/04/05 00:13:22;;;;;;;20.1;16.2;;;;;;;4.26;71.43848;943.9288;;;;
2020/04/05 00:15:48;;;;;;;18.4;15.5;;;;;;;4.37;70.95117;943.9573;;;;
2020/04/05 00:18:13;;;;;;;19.1;15.7;;;;;;;4.43;70.62207;943.9306;;;;
2020/04/05 00:20:38;;;;;;;20.9;15.8;;;;;;;4.33;70.94336;943.9525;;;;
2020/04/05 00:23:03;;;;;;;20.1;15.5;;;;;;;4.24;71.32227;943.928;;;;
2020/04/05 00:25:28;;;;;;;20.3;15.6;;;;;;;4.19;71.79688;943.9365;;;;
2020/04/05 00:27:53;;;;;;;18.9;15.7;;;;;;;4.17;71.76074;943.8942;;;;
2020/04/05 00:30:18;;;;;;;16.9;14.7;;;;;;;4.31;71.17578;943.8575;;;;
2020/04/05 00:32:48;;;;;;;19;15.8;;;;;;;4.37;70.72461;943.8325;;;;
2020/04/05 00:35:09;;;;;;;18.4;15.5;;;;;;;4.45;70.20898;943.8409;;;;
2020/04/05 00:37:34;;;;;;;19;15.5;;;;;;;4.46;70.13184;943.7906;;;;
2020/04/05 00:39:59;;;;;;;17.1;15.2;;;;;;;4.51;69.70117;943.7605;;;;
2020/04/05 00:42:24;;;;;;;19.8;15.9;;;;;;;4.11;71.25586;943.7653;;;;
2020/04/05 00:44:50;;;;;;;18;15.8;;;;;;;4;71.88867;943.7523;;;;
2020/04/05 00:47:15;;;;;;;17.2;15.1;;;;;;;4.05;71.64941;943.6383;;;;
2020/04/05 00:49:40;;;;;;;18.5;15.4;;;;;;;3.91;72.16699;943.7109;;;;
2020/04/05 00:52:05;;;;;;;18.4;15.7;;;;;;;3.56;73.90332;943.6186;;;;
2020/04/05 00:54:30;;;;;;;19;16.2;;;;;;;3.54;74.17188;943.6644;;;;
2020/04/05 00:56:55;;;;;;;20.3;17.1;;;;;;;3.4;74.97754;943.6005;;;;
2020/04/05 00:59:20;;;;;;;22.2;16.5;;;;;;;3.41;75.0127;943.6097;;;;
2020/04/05 01:01:46;;;;;;;22.1;16.2;;;;;;;3.53;74.50586;943.6039;;;;
2020/04/05 01:04:11;;;;;;;19.6;16.8;;;;;;;3.4;75.14551;943.5391;;;;
2020/04/05 01:06:36;;;;;;;20.5;16.2;;;;;;;3.4;75.06738;943.5577;;;;
2020/04/05 01:09:01;;;;;;;20.1;16.1;;;;;;;3.32;75.63672;943.5525;;;;
2020/04/05 01:11:26;;;;;;;20.7;15.9;;;;;;;3.45;75.22266;943.507;;;;
2020/04/05 01:13:51;;;;;;;22.1;16.7;;;;;;;3.38;75.34277;943.5402;;;;
2020/04/05 01:16:17;;;;;;;19.5;16.3;;;;;;;3.58;74.57129;943.4716;;;;
2020/04/05 01:18:42;;;;;;;19;15.7;;;;;;;3.66;73.95605;943.4818;;;;
2020/04/05 01:21:07;;;;;;;17.8;15.7;;;;;;;3.41;74.6084;943.4241;;;;
2020/04/05 01:23:32;;;;;;;18.6;15.6;;;;;;;3.29;74.98047;943.4341;;;;
2020/04/05 01:28:45;;;;;;;20.1;16.5;;;;;;;3.14;76.13379;943.3761;;;;
2020/04/05 01:30:48;;;;;;;19.1;16.2;;;;;;;3.16;76.22461;943.361;;;;
2020/04/05 01:33:12;;;;;;;20.1;16.6;;;;;;;3.26;75.71484;943.2209;;;;
2020/04/05 01:35:37;;;;;;;18;15.8;;;;;;;3.25;75.62402;943.2441;;;;
2020/04/05 01:38:03;;;;;;;19;16.7;;;;;;;3.31;75.3418;943.2908;;;;
2020/04/05 01:40:28;;;;;;;18.1;16.1;;;;;;;3.37;75.05078;943.303;;;;
2020/04/05 01:42:53;;;;;;;22.7;17.3;;;;;;;3.44;74.70508;943.3167;;;;
2020/04/05 01:45:18;;;;;;;18.6;16.6;;;;;;;3.47;74.23926;943.2592;;;;
2020/04/05 01:47:43;;;;;;;22.3;16.5;;;;;;;3.44;74.2334;943.3231;;;;
2020/04/05 01:50:09;;;;;;;20.5;16;;;;;;;3.38;74.40039;943.2678;;;;
2020/04/05 01:52:34;;;;;;;18.7;15.9;;;;;;;3.17;75.4541;943.2654;;;;
2020/04/05 01:54:59;;;;;;;20;16.5;;;;;;;2.98;76.41699;943.314;;;;
2020/04/05 01:57:24;;;;;;;18.4;14.9;;;;;;;3.02;76.14453;943.2488;;;;
2020/04/05 01:59:49;;;;;;;18;15.5;;;;;;;2.97;76.14648;943.2916;;;;
2020/04/05 02:02:14;;;;;;;17;14.6;;;;;;;2.93;76.18457;943.2693;;;;
2020/04/05 02:04:40;;;;;;;19.2;16.1;;;;;;;2.86;76.64258;943.2983;;;;
2020/04/05 02:07:05;;;;;;;19.7;16;;;;;;;2.78;77.13281;943.2109;;;;
2020/04/05 02:09:30;;;;;;;18.2;15.9;;;;;;;2.84;77.46973;943.2737;;;;
2020/04/05 02:11:56;;;;;;;19.8;16.3;;;;;;;2.81;77.28516;943.3173;;;;
2020/04/05 02:16:11;;;;;;;19.7;15.8;;;;;;;2.74;77.47363;943.2533;;;;
2020/04/05 02:16:56;;;;;;;19.4;16.2;;;;;;;2.71;77.56934;943.2402;;;;
2020/04/05 02:19:12;;;;;;;22;16.8;;;;;;;2.72;77.78223;943.2452;;;;
2020/04/05 02:24:01;;;;;;;19.9;16.3;;;;;;;2.7;77.86914;943.1688;;;;
2020/04/05 02:26:26;;;;;;;18.7;16.1;;;;;;;2.49;78.58203;943.1989;;;;
2020/04/05 02:29:09;;;;;;;20.6;17;;;;;;;2.44;78.59375;943.2034;;;;
2020/04/05 02:31:16;;;;;;;21.9;17.9;;;;;;;2.52;78.55469;943.2104;;;;
2020/04/05 02:33:41;;;;;;;22.2;17.3;;;;;;;2.59;78.16309;943.1619;;;;
2020/04/05 02:36:06;;;;;;;19.9;17.4;;;;;;;2.47;78.60059;943.1561;;;;
2020/04/05 02:38:31;;;;;;;19;16.9;;;;;;;2.58;78.30664;943.1322;;;;
2020/04/05 02:40:56;;;;;;;19.8;16.1;;;;;;;2.53;78.26465;943.1423;;;;
2020/04/05 02:43:27;;;;;;;19;16.4;;;;;;;2.43;78.54883;943.2114;;;;
2020/04/05 02:45:46;;;;;;;19.6;16.4;;;;;;;2.41;78.66699;943.1099;;;;
2020/04/05 02:48:11;;;;;;;22.3;17.3;;;;;;;2.4;78.76855;943.0948;;;;
2020/04/05 02:50:44;;;;;;;20.5;15.7;;;;;;;2.39;78.98926;943.1033;;;;
2020/04/05 02:53:02;;;;;;;21.2;16.5;;;;;;;2.41;78.62207;943.1869;;;;
2020/04/05 02:55:27;;;;;;;20.6;17.1;;;;;;;2.42;78.32129;943.1671;;;;
2020/04/05 02:58:27;;;;;;;20.3;17.4;;;;;;;2.32;78.45996;943.1854;;;;
2020/04/05 03:00:20;;;;;;;20.1;17.1;;;;;;;2.3;78.3916;943.2028;;;;
2020/04/05 03:02:49;;;;;;;20;17.3;;;;;;;2.25;78.67285;943.1627;;;;
2020/04/05 03:05:18;;;;;;;19.8;16.6;;;;;;;2.28;78.24023;943.0925;;;;
2020/04/05 03:07:35;;;;;;;20.6;16.2;;;;;;;2.36;77.61719;943.1262;;;;
2020/04/05 03:09:57;;;;;;;19.6;16.7;;;;;;;2.11;78.75781;943.0355;;;;
2020/04/05 03:12:22;;;;;;;19.9;16.6;;;;;;;2.01;79.24316;943.0839;;;;
2020/04/05 03:14:47;;;;;;;19.9;17.1;;;;;;;2.08;79.00879;942.9961;;;;
2020/04/05 03:17:12;;;;;;;18.9;16.5;;;;;;;2.09;78.95703;943.0904;;;;
2020/04/05 03:19:38;;;;;;;20.8;16.8;;;;;;;2.09;79.17969;943.033;;;;
2020/04/05 03:22:03;;;;;;;20.8;16;;;;;;;2.15;78.90039;943.0176;;;;
2020/04/05 03:24:28;;;;;;;18.7;16;;;;;;;2.18;78.64746;943.0519;;;;
2020/04/05 03:26:53;;;;;;;19.3;16.5;;;;;;;2.08;79.17676;943.0181;;;;
2020/04/05 03:29:18;;;;;;;19.6;15.9;;;;;;;2.14;78.96582;943.019;;;;
2020/04/05 03:31:43;;;;;;;20.1;17;;;;;;;2.04;79.59668;943.0603;;;;
2020/04/05 03:34:09;;;;;;;20.6;17;;;;;;;2.06;79.4541;943.0345;;;;
2020/04/05 03:36:34;;;;;;;19.8;17.1;;;;;;;2.04;79.52734;942.9988;;;;
2020/04/05 03:38:59;;;;;;;19.1;16.5;;;;;;;2.05;79.54199;943.0552;;;;
2020/04/05 03:41:24;;;;;;;19.1;16.4;;;;;;;2.05;79.06055;943.0693;;;;
2020/04/05 03:43:50;;;;;;;18.3;16.1;;;;;;;2.14;78.29395;942.9907;;;;
2020/04/05 03:46:15;;;;;;;19.6;16.3;;;;;;;2.03;78.83203;942.8978;;;;
2020/04/05 03:48:40;;;;;;;17.6;15.7;;;;;;;1.9;79.35645;942.9622;;;;
2020/04/05 03:51:05;;;;;;;21.6;16.6;;;;;;;2.03;78.8877;942.8879;;;;
2020/04/05 03:53:30;;;;;;;19.8;16;;;;;;;1.88;79.74316;942.8344;;;;
2020/04/05 03:56:01;;;;;;;17.8;15.9;;;;;;;1.87;79.86621;942.9149;;;;
2020/04/05 03:58:22;;;;;;;18.9;15.3;;;;;;;1.81;80.15625;942.9222;;;;
2020/04/05 04:02:30;;;;;;;18.3;16.3;;;;;;;1.73;80.51074;942.9572;;;;
2020/04/05 04:04:55;;;;;;;21.4;16.6;;;;;;;1.61;81.04883;942.9224;;;;
2020/04/05 04:07:20;;;;;;;24.2;17.6;;;;;;;1.56;81.73145;942.9218;;;;
2020/04/05 04:12:10;;;;;;;21.3;16.8;;;;;;;1.67;81.23633;942.8734;;;;
2020/04/05 04:14:35;;;;;;;20.1;16.1;;;;;;;1.67;80.83398;942.9055;;;;
2020/04/05 04:17:00;;;;;;;21.2;16.1;;;;;;;1.62;81.26172;942.9086;;;;
2020/04/05 04:19:25;;;;;;;19.5;15.6;;;;;;;1.64;80.89551;942.8741;;;;
2020/04/05 04:21:51;;;;;;;18.9;16.6;;;;;;;1.71;80.57422;942.9728;;;;
2020/04/05 04:24:16;;;;;;;19.9;16.3;;;;;;;1.69;80.43652;942.9191;;;;
2020/04/05 04:26:41;;;;;;;19.8;16.1;;;;;;;1.71;80.22754;942.9791;;;;
2020/04/05 04:29:06;;;;;;;22.2;18.1;;;;;;;1.77;80.0918;943.0101;;;;
2020/04/05 04:31:31;;;;;;;20.7;18.2;;;;;;;1.65;80.66309;942.9644;;;;
2020/04/05 04:33:56;;;;;;;21.7;17.4;;;;;;;1.65;80.75195;943.0011;;;;
2020/04/05 04:36:22;;;;;;;21.1;17.3;;;;;;;1.78;80.01758;943.0815;;;;
2020/04/05 04:38:47;;;;;;;21.5;15.8;;;;;;;1.67;80.19824;942.96;;;;
2020/04/05 04:41:12;;;;;;;17.4;14.9;;;;;;;1.63;80.24512;943.0889;;;;
2020/04/05 04:43:37;;;;;;;19.3;14.8;;;;;;;1.62;80.40039;943.0803;;;;
2020/04/05 04:46:02;;;;;;;19.9;15;;;;;;;1.75;79.6543;943.1075;;;;
2020/04/05 04:48:27;;;;;;;18.9;15.4;;;;;;;1.59;80.6748;943.0872;;;;
2020/04/05 04:50:52;;;;;;;21.3;17.2;;;;;;;1.57;80.92676;943.176;;;;
2020/04/05 04:53:17;;;;;;;23.6;19.1;;;;;;;1.62;80.47852;943.0759;;;;
2020/04/05 04:55:42;;;;;;;22.1;19;;;;;;;1.7;79.92188;943.1635;;;;
2020/04/05 04:58:08;;;;;;;24.1;19;;;;;;;1.69;79.65332;943.2103;;;;
2020/04/05 05:00:33;;;;;;;23.5;17.3;;;;;;;1.68;79.45996;943.2434;;;;
2020/04/05 05:02:58;;;;;;;19.7;16.8;;;;;;;1.71;79.2207;943.2434;;;;
2020/04/05 05:05:23;;;;;;;24.4;18.1;;;;;;;1.56;80.05273;943.2551;;;;
2020/04/05 05:07:49;;;;;;;26.4;19.6;;;;;;;1.57;80.27832;943.2927;;;;
2020/04/05 05:10:16;;;;;;;37.7;25.1;;;;;;;1.59;80.58496;943.3535;;;;
2020/04/05 05:12:39;;;;;;;36.4;26.1;;;;;;;1.68;80.06348;943.2434;;;;
2020/04/05 05:15:04;;;;;;;27.2;19.1;;;;;;;1.64;80.1582;943.3792;;;;
2020/04/05 05:17:29;;;;;;;23.8;18.2;;;;;;;1.58;80.36914;943.3636;;;;
2020/04/05 05:19:54;;;;;;;19.5;16.6;;;;;;;1.61;80.11914;943.382;;;;
2020/04/05 05:22:20;;;;;;;19.1;16.1;;;;;;;1.72;79.625;943.4694;;;;
2020/04/05 05:24:45;;;;;;;19.3;16.2;;;;;;;1.7;79.33105;943.5092;;;;
2020/04/05 05:27:10;;;;;;;19;15.5;;;;;;;1.67;79.30176;943.4934;;;;
2020/04/05 05:29:35;;;;;;;18;14.9;;;;;;;1.62;79.47266;943.5784;;;;
2020/04/05 05:32:01;;;;;;;18.4;15.4;;;;;;;1.59;79.83594;943.5503;;;;
2020/04/05 05:34:26;;;;;;;18;15.3;;;;;;;1.62;79.89746;943.44;;;;
2020/04/05 05:36:51;;;;;;;18.9;15.6;;;;;;;1.66;79.9375;943.5275;;;;
2020/04/05 05:39:16;;;;;;;25.4;18.3;;;;;;;1.77;79.5459;943.5435;;;;
2020/04/05 05:41:42;;;;;;;24.3;19;;;;;;;1.98;78.94531;943.4858;;;;
2020/04/05 05:44:07;;;;;;;23.2;17.9;;;;;;;2.26;78.45996;943.5133;;;;
2020/04/05 05:46:32;;;;;;;20.7;15.4;;;;;;;2.8;76.3623;943.5081;;;;
2020/04/05 05:48:58;;;;;;;15.9;11.7;;;;;;;3.78;72.36914;943.4814;;;;
2020/04/05 05:51:25;;;;;;;12.8;10.3;;;;;;;4.33;69.79395;943.4279;;;;
2020/04/05 05:54:04;;;;;;;16.1;10.4;;;;;;;4.59;69.17383;943.5162;;;;
2020/04/05 05:56:18;;;;;;;13.3;11;;;;;;;4.88;67.82422;943.4622;;;;
2020/04/05 05:58:38;;;;;;;13.7;10.4;;;;;;;5.28;66.80469;943.4808;;;;
2020/04/05 06:01:05;;;;;;;18.7;14;;;;;;;5.4;65.69434;943.4402;;;;
2020/04/05 06:03:29;;;;;;;19;13.4;;;;;;;5.78;64.95215;943.4374;;;;
2020/04/05 06:05:54;;;;;;;16.7;11.5;;;;;;;6.63;62.52441;943.4333;;;;
2020/04/05 06:08:20;;;;;;;11.2;8.6;;;;;;;8.13;56.40723;943.4312;;;;
2020/04/05 06:10:44;;;;;;;12.6;9.7;;;;;;;9.4;53.2373;943.493;;;;
2020/04/05 06:13:10;;;;;;;17.6;13.7;;;;;;;10.14;49.88281;943.4249;;;;
2020/04/05 06:15:35;;;;;;;14.3;10.3;;;;;;;10.42;49.08203;943.3769;;;;
2020/04/05 06:18:00;;;;;;;10.1;8.3;;;;;;;10.63;47.91895;943.4144;;;;
2020/04/05 06:20:25;;;;;;;12;8.9;;;;;;;10.52;48.35156;943.4241;;;;
2020/04/05 06:22:51;;;;;;;12.2;9.2;;;;;;;11.41;46.42578;943.2941;;;;
2020/04/05 06:25:17;;;;;;;14.4;9.3;;;;;;;11.91;45.02441;943.4554;;;;
2020/04/05 06:27:42;;;;;;;11;8.4;;;;;;;11.82;44.52344;943.4128;;;;
2020/04/05 06:30:08;;;;;;;12.7;8.5;;;;;;;12.21;44.21973;943.3979;;;;
2020/04/05 06:32:33;;;;;;;14.5;9.3;;;;;;;12.88;42.55371;943.4849;;;;
2020/04/05 06:34:58;;;;;;;14.1;8.5;;;;;;;13.37;41.37207;943.4497;;;;
2020/04/05 06:37:23;;;;;;;11.1;7.8;;;;;;;13.9;40.31738;943.3889;;;;
2020/04/05 06:39:48;;;;;;;12.9;8.3;;;;;;;14.34;39.12598;943.356;;;;
2020/04/05 06:42:13;;;;;;;11.6;7.8;;;;;;;14.5;38.19629;943.3273;;;;
2020/04/05 06:44:38;;;;;;;11.7;7.4;;;;;;;14.76;37.83789;943.3258;;;;
2020/04/05 06:47:03;;;;;;;9.8;6.9;;;;;;;14.49;36.8584;943.3074;;;;
2020/04/05 06:49:28;;;;;;;11.1;7.5;;;;;;;14.66;37.61035;943.3208;;;;
2020/04/05 06:51:54;;;;;;;9.1;7.6;;;;;;;14.75;37.31836;943.2761;;;;
2020/04/05 06:54:19;;;;;;;16.1;9.1;;;;;;;14.73;37.98633;943.2567;;;;
2020/04/05 06:56:44;;;;;;;13;9.4;;;;;;;14.88;36.93848;943.2877;;;;
2020/04/05 06:59:09;;;;;;;12.3;8.9;;;;;;;15.41;36.23242;943.2562;;;;
2020/04/05 07:01:34;;;;;;;9.9;7.8;;;;;;;15.02;36.01563;943.2416;;;;
2020/04/05 07:03:59;;;;;;;9.7;6.7;;;;;;;14.85;35.8291;943.2011;;;;
2020/04/05 07:06:24;;;;;;;10.9;8.1;;;;;;;14.89;36.91602;943.2075;;;;
2020/04/05 07:08:49;;;;;;;9.8;6.7;;;;;;;14.26;36.21777;943.1667;;;;
2020/04/05 07:11:15;;;;;;;10.5;7.1;;;;;;;14.42;36.65625;943.2026;;;;
2020/04/05 07:13:40;;;;;;;9.8;6.5;;;;;;;14.91;34.76074;943.1763;;;;
2020/04/05 07:16:05;;;;;;;9.7;6.6;;;;;;;16.42;32.27637;943.157;;;;
2020/04/05 07:18:39;;;;;;;10.6;6.2;;;;;;;16.95;30.97168;943.1635;;;;
2020/04/05 07:21:01;;;;;;;9.6;6.2;;;;;;;16.68;30.80273;943.128;;;;
2020/04/05 07:23:25;;;;;;;8.6;5.6;;;;;;;17.64;29.77832;943.1297;;;;
2020/04/05 07:25:46;;;;;;;9.2;5.9;;;;;;;19.39;27.90527;943.1506;;;;
2020/04/05 07:28:49;;;;;;;7.9;5.9;;;;;;;19.12;27.8291;943.12;;;;
2020/04/05 07:30:41;;;;;;;8.4;5.6;;;;;;;20.39;27.66504;943.1376;;;;
2020/04/05 07:33:11;;;;;;;6;5;;;;;;;20.95;27.16211;943.1656;;;;
2020/04/05 07:35:27;;;;;;;8.3;5.5;;;;;;;20.43;25.5293;943.0979;;;;
2020/04/05 07:37:51;;;;;;;8.2;6.4;;;;;;;20.41;25.25977;943.1725;;;;
2020/04/05 07:40:16;;;;;;;7.5;5.3;;;;;;;20.24;26.45215;943.1836;;;;
2020/04/05 07:42:44;;;;;;;7.1;5.3;;;;;;;20.71;25.84961;943.1901;;;;
2020/04/05 07:45:06;;;;;;;9.8;5.1;;;;;;;21.79;25.12793;943.1473;;;;
2020/04/05 07:47:31;;;;;;;5.7;4.9;;;;;;;21.84;24.41602;943.1464;;;;
2020/04/05 07:49:56;;;;;;;5.9;4.4;;;;;;;22.74;26.4375;943.1106;;;;
2020/04/05 07:52:21;;;;;;;6.1;5.4;;;;;;;22.73;26.67188;943.1028;;;;
2020/04/05 07:54:47;;;;;;;7;5.3;;;;;;;23.24;26.38477;943.0582;;;;
2020/04/05 07:57:12;;;;;;;6.3;5.3;;;;;;;23.67;25.03418;943.1067;;;;
2020/04/05 07:59:37;;;;;;;8;5.2;;;;;;;23.73;25.36719;943.1487;;;;
2020/04/05 08:02:03;;;;;;;6.4;5.3;;;;;;;24.43;24.13477;943.0661;;;;
2020/04/05 08:04:28;;;;;;;6.1;4.8;;;;;;;24.99;22.84277;943.1379;;;;
2020/04/05 08:06:53;;;;;;;7.5;5.1;;;;;;;25;22.9375;943.0969;;;;
2020/04/05 08:09:18;;;;;;;6.9;4.9;;;;;;;25.03;22.4668;943.1041;;;;
2020/04/05 08:11:49;;;;;;;6.8;4.8;;;;;;;25.47;22.3125;943.1116;;;;
2020/04/05 08:14:14;;;;;;;5.4;4.7;;;;;;;26.72;20.78711;943.0491;;;;
2020/04/05 08:16:40;;;;;;;5;4.5;;;;;;;27.21;20.12207;943.0031;;;;
2020/04/05 08:19:05;;;;;;;5.3;4.5;;;;;;;26.86;20.37891;942.9528;;;;
2020/04/05 08:21:30;;;;;;;5.7;4.9;;;;;;;26.95;20.39551;942.9863;;;;
2020/04/05 08:23:55;;;;;;;5.7;5;;;;;;;26.47;20.77637;942.9675;;;;
2020/04/05 08:26:20;;;;;;;7.5;5.2;;;;;;;25.82;21.29004;942.9852;;;;
2020/04/05 08:28:45;;;;;;;7.4;4.8;;;;;;;25.98;21.61621;942.9927;;;;
2020/04/05 08:31:10;;;;;;;5.4;4.3;;;;;;;26.33;21.10059;942.9436;;;;
2020/04/05 08:33:35;;;;;;;6;4.8;;;;;;;26.64;20.41602;942.9128;;;;
2020/04/05 08:36:00;;;;;;;5.7;4.8;;;;;;;25.26;22.1123;942.9316;;;;
2020/04/05 08:38:26;;;;;;;7.6;4.6;;;;;;;25.23;22.04102;942.9114;;;;
2020/04/05 08:40:51;;;;;;;5.8;4.4;;;;;;;25.45;21.7334;942.884;;;;
2020/04/05 08:43:16;;;;;;;6.8;4.7;;;;;;;25.62;21.63477;942.8892;;;;
2020/04/05 08:45:41;;;;;;;5.8;4.8;;;;;;;25.62;21.01953;942.8536;;;;
2020/04/05 08:48:06;;;;;;;5.2;4.4;;;;;;;25.99;20.84766;942.8716;;;;
2020/04/05 08:50:31;;;;;;;6.3;4.2;;;;;;;26.45;20.73926;942.8011;;;;
2020/04/05 08:52:56;;;;;;;4.8;4.3;;;;;;;26.5;20.29199;942.7159;;;;
2020/04/05 08:55:21;;;;;;;5.9;4.5;;;;;;;26.03;20.70898;942.7547;;;;
2020/04/05 08:57:46;;;;;;;4.9;4;;;;;;;26.04;20.98145;942.7878;;;;
2020/04/05 09:00:12;;;;;;;4.5;4.1;;;;;;;25.89;20.71387;942.7645;;;;
2020/04/05 09:02:37;;;;;;;4.6;4.2;;;;;;;25.54;21.00488;942.7548;;;;
2020/04/05 09:05:02;;;;;;;5.2;4.4;;;;;;;25.52;21.44043;942.7305;;;;
2020/04/05 09:07:27;;;;;;;5.7;4.5;;;;;;;24.36;22.69336;942.6965;;;;
2020/04/05 09:09:52;;;;;;;5.7;4.3;;;;;;;24.21;22.76758;942.6501;;;;
2020/04/05 09:12:17;;;;;;;4.8;4.1;;;;;;;23.71;23.21191;942.6371;;;;
2020/04/05 09:14:43;;;;;;;5.5;4.2;;;;;;;23.42;23.39746;942.6881;;;;
2020/04/05 09:17:08;;;;;;;5.2;3.9;;;;;;;23.59;22.94727;942.6287;;;;
2020/04/05 09:19:33;;;;;;;5.6;4.3;;;;;;;24.17;22.24707;942.5684;;;;
2020/04/05 09:21:58;;;;;;;5.8;4.4;;;;;;;24.12;22.08008;942.484;;;;
2020/04/05 09:24:24;;;;;;;8.2;4.2;;;;;;;24.03;22.09863;942.5497;;;;
2020/04/05 09:26:49;;;;;;;7;4;;;;;;;24.54;21.57031;942.5101;;;;
2020/04/05 09:29:14;;;;;;;5.5;4.3;;;;;;;23.99;22.52148;942.5289;;;;
2020/04/05 09:31:46;;;;;;;5.1;4.4;;;;;;;23.8;22.20508;942.5143;;;;
2020/04/05 09:34:05;;;;;;;5.6;4.5;;;;;;;24;22.6748;942.4553;;;;
2020/04/05 09:36:30;;;;;;;6.3;4.5;;;;;;;23.41;23.83203;942.465;;;;
2020/04/05 09:38:55;;;;;;;6.6;4.4;;;;;;;23.18;24.01953;942.4755;;;;
2020/04/05 09:41:22;;;;;;;5.8;4.3;;;;;;;23.87;22.6084;942.4391;;;;
2020/04/05 09:43:45;;;;;;;7.6;4.7;;;;;;;23.26;24.49414;942.418;;;;
2020/04/05 09:48:35;;;;;;;7.7;5.2;;;;;;;21.94;27.09375;942.3433;;;;
2020/04/05 09:51:08;;;;;;;6.2;5.6;;;;;;;22.14;26.56641;942.3481;;;;
2020/04/05 09:53:34;;;;;;;6.1;5.1;;;;;;;22.65;26.84375;942.3624;;;;
2020/04/05 09:55:59;;;;;;;7.4;5.4;;;;;;;22.55;25.76953;942.3176;;;;
2020/04/05 09:58:24;;;;;;;6.2;5.3;;;;;;;22.42;27.27539;942.3281;;;;
2020/04/05 10:00:50;;;;;;;6.8;5.4;;;;;;;22.12;28.15918;942.2715;;;;
2020/04/05 10:03:14;;;;;;;8.8;5.9;;;;;;;21.82;27.22656;942.228;;;;
2020/04/05 10:05:39;;;;;;;9.5;6;;;;;;;21.95;28.35938;942.1777;;;;
2020/04/05 10:08:04;;;;;;;7.6;6.3;;;;;;;22.2;28.50488;942.1889;;;;
2020/04/05 10:10:30;;;;;;;7.3;5.5;;;;;;;22.93;25.4043;942.1925;;;;
2020/04/05 10:12:55;;;;;;;10.5;5.8;;;;;;;22.14;27.57422;942.1632;;;;
2020/04/05 10:15:20;;;;;;;7.8;5.7;;;;;;;22.7;27.0459;942.1316;;;;
2020/04/05 10:17:49;;;;;;;9.6;5.7;;;;;;;23.06;25.77539;942.07;;;;
2020/04/05 10:21:48;;;;;;;7.3;6;;;;;;;23;25.85449;942.1462;;;;
2020/04/05 10:25:05;;;;;;;8.2;6.3;;;;;;;21.75;28.25293;942.0469;;;;
2020/04/05 10:27:26;;;;;;;8.6;6.1;;;;;;;21.69;27.24219;942.0574;;;;
2020/04/05 10:29:51;;;;;;;7.4;6.3;;;;;;;21.28;29.1123;942.0775;;;;
2020/04/05 10:32:16;;;;;;;6.7;6;;;;;;;20.92;29.60352;942.0466;;;;
2020/04/05 10:34:41;;;;;;;10.4;6.5;;;;;;;21.27;28.33984;942.0217;;;;
2020/04/05 10:37:06;;;;;;;7.8;6.3;;;;;;;21.19;29.67969;942.0831;;;;
2020/04/05 10:39:31;;;;;;;9.8;6.3;;;;;;;21.73;28.32227;941.9864;;;;
2020/04/05 10:41:56;;;;;;;7.4;5.8;;;;;;;22.09;27.0332;941.9787;;;;
2020/04/05 10:44:21;;;;;;;9.3;6.3;;;;;;;21.86;28.48242;942.01;;;;
2020/04/05 10:46:47;;;;;;;7.4;6.1;;;;;;;22.04;26.38477;941.9712;;;;
2020/04/05 10:49:12;;;;;;;8.3;5.9;;;;;;;21.31;28.3418;942.015;;;;
2020/04/05 10:51:37;;;;;;;7.6;6;;;;;;;21.78;27.09473;942.0305;;;;
2020/04/05 10:54:02;;;;;;;8.8;6.4;;;;;;;21.8;27.96289;941.9506;;;;
2020/04/05 10:56:27;;;;;;;8.3;6.2;;;;;;;21.34;28.77637;941.9665;;;;
2020/04/05 10:58:52;;;;;;;9.8;6.2;;;;;;;21.12;29.6748;941.8986;;;;
2020/04/05 11:01:18;;;;;;;9.7;6.4;;;;;;;21.66;28.56445;941.8075;;;;
2020/04/05 11:03:43;;;;;;;8.7;6.2;;;;;;;21.66;29.34863;941.7744;;;;
2020/04/05 11:06:08;;;;;;;9.2;6.1;;;;;;;21.47;28.61035;941.7388;;;;
2020/04/05 11:08:33;;;;;;;7.6;5.5;;;;;;;22.06;27.49902;941.8038;;;;
2020/04/05 11:10:58;;;;;;;8.8;6.3;;;;;;;23.16;26.12207;941.7481;;;;
2020/04/05 11:13:24;;;;;;;10.5;6.3;;;;;;;23.39;26.41797;941.7862;;;;
2020/04/05 11:15:49;;;;;;;12.2;6.4;;;;;;;23.54;27.34473;941.7802;;;;
2020/04/05 11:18:14;;;;;;;8.5;5.4;;;;;;;24.14;24.69531;941.7125;;;;
2020/04/05 11:20:39;;;;;;;7.9;5.5;;;;;;;25.16;23.71387;941.75;;;;
2020/04/05 11:23:04;;;;;;;7.9;5.5;;;;;;;25.76;22.62305;941.6577;;;;
2020/04/05 11:25:30;;;;;;;7.2;5.9;;;;;;;24.65;24.87695;941.6699;;;;
2020/04/05 11:27:54;;;;;;;5.9;5.3;;;;;;;25.2;24.29395;941.6717;;;;
2020/04/05 11:30:20;;;;;;;9.6;5.8;;;;;;;24.69;24.4668;941.6475;;;;
2020/04/05 11:32:45;;;;;;;10.4;5.6;;;;;;;24.12;25.44824;941.5247;;;;
2020/04/05 11:35:10;;;;;;;13.9;6.3;;;;;;;23.1;26.89453;941.5388;;;;
2020/04/05 11:37:35;;;;;;;6.4;5.7;;;;;;;23.05;25.69238;941.5293;;;;
2020/04/05 11:40:00;;;;;;;8.3;5.8;;;;;;;24.46;24.30078;941.5183;;;;
2020/04/05 11:42:25;;;;;;;8;5.6;;;;;;;25.38;23.08789;941.4075;;;;
2020/04/05 11:44:50;;;;;;;8.5;5.8;;;;;;;25.67;22.74805;941.474;;;;
2020/04/05 11:47:15;;;;;;;7.6;5.5;;;;;;;26.69;20.75;941.4306;;;;
2020/04/05 11:49:40;;;;;;;6.7;5.4;;;;;;;27.46;20.77441;941.3937;;;;
2020/04/05 11:52:06;;;;;;;10;5.8;;;;;;;27.97;20.79785;941.3683;;;;
2020/04/05 11:54:31;;;;;;;7.5;6.1;;;;;;;28.19;20.37988;941.338;;;;
2020/04/05 11:56:56;;;;;;;6.9;5.3;;;;;;;28.74;20.16699;941.2858;;;;
2020/04/05 11:59:21;;;;;;;8;5.7;;;;;;;27.29;20.84961;941.2642;;;;
2020/04/05 12:01:46;;;;;;;6.8;5.6;;;;;;;28.26;20.18164;941.2364;;;;
2020/04/05 12:04:11;;;;;;;7.4;5.5;;;;;;;28.63;19.90039;941.267;;;;
2020/04/05 12:06:36;;;;;;;7.2;5.8;;;;;;;28.67;20.72266;941.2502;;;;
2020/04/05 12:09:03;;;;;;;7.6;5.7;;;;;;;26.58;22.54492;941.176;;;;
2020/04/05 12:11:26;;;;;;;10.6;6.3;;;;;;;26.26;23.57031;941.2026;;;;
2020/04/05 12:13:52;;;;;;;6.9;5.5;;;;;;;26.82;22.79395;941.1417;;;;
2020/04/05 12:16:21;;;;;;;9;5.7;;;;;;;28.03;20.9668;941.1523;;;;
2020/04/05 12:18:42;;;;;;;10.3;6.3;;;;;;;28.09;20.81543;941.0736;;;;
2020/04/05 12:21:08;;;;;;;6.5;5.8;;;;;;;26.36;23.30371;940.8856;;;;
2020/04/05 12:23:37;;;;;;;13.1;6.4;;;;;;;24.56;25.07324;941.0717;;;;
2020/04/05 12:26:02;;;;;;;9.3;6.1;;;;;;;26.59;22.81738;941.0261;;;;
2020/04/05 12:33:47;;;;;;;10.5;6;;;;;;;26;22.70508;940.9683;;;;
2020/04/05 12:43:12;;;;;;;8.7;6;;;;;;;24.48;25.30371;940.9059;;;;
2020/04/05 12:45:49;;;;;;;8.6;6.3;;;;;;;25.23;24.8623;940.832;;;;
2020/04/05 12:50:31;;;;;;;10.7;6.6;;;;;;;25.36;24.68066;940.7913;;;;
2020/04/05 12:52:46;;;;;;;8.8;6.4;;;;;;;25.56;24.08887;940.8194;;;;
2020/04/05 12:57:51;;;;;;;8;6;;;;;;;25.9;23.32715;940.7941;;;;
2020/04/05 13:02:56;;;;;;;9.1;6.2;;;;;;;25.16;24.52832;940.6943;;;;
2020/04/05 13:04:59;;;;;;;7.5;5.7;;;;;;;25.22;24.67285;940.7687;;;;
2020/04/05 13:07:16;;;;;;;7.7;5.9;;;;;;;25.39;24.38672;940.72;;;;
2020/04/05 13:09:46;;;;;;;8.1;5.9;;;;;;;25.16;24.09082;940.6764;;;;
2020/04/05 13:14:41;;;;;;;9.3;5.9;;;;;;;24.18;25.74609;940.6703;;;;
2020/04/05 13:16:56;;;;;;;9.2;6;;;;;;;23.25;27.37305;940.6273;;;;
2020/04/05 13:19:21;;;;;;;12.3;6.3;;;;;;;22.83;29.37891;940.5422;;;;
2020/04/05 13:21:46;;;;;;;11.3;6.6;;;;;;;23.78;26.8291;940.5527;;;;
2020/04/05 13:24:11;;;;;;;8;6.1;;;;;;;24.39;25.85254;940.5622;;;;
2020/04/05 13:26:36;;;;;;;7.3;5.9;;;;;;;24.46;26.39941;940.5784;;;;
2020/04/05 13:29:01;;;;;;;12.3;6.5;;;;;;;23.5;27.35352;940.5475;;;;
2020/04/05 13:31:27;;;;;;;7.2;6.3;;;;;;;23.39;27.04102;940.4938;;;;
2020/04/05 13:33:52;;;;;;;11.1;6.8;;;;;;;23.41;27.37109;940.5481;;;;
2020/04/05 13:36:17;;;;;;;8.7;6.7;;;;;;;23.73;26.42578;940.4543;;;;
2020/04/05 13:38:42;;;;;;;9.6;6.5;;;;;;;23.51;27.35352;940.4678;;;;
2020/04/05 13:41:07;;;;;;;10.2;6.5;;;;;;;22.56;28.38672;940.4512;;;;
2020/04/05 13:43:33;;;;;;;8.6;6.2;;;;;;;22.18;29.3584;940.3652;;;;
2020/04/05 13:45:58;;;;;;;11.3;6.7;;;;;;;21.82;29.69824;940.3521;;;;
2020/04/05 13:48:23;;;;;;;8.9;6.7;;;;;;;21.75;30.19727;940.3533;;;;
2020/04/05 13:50:48;;;;;;;10.6;6.6;;;;;;;21.44;30.58594;940.269;;;;
2020/04/05 13:53:15;;;;;;;9.4;6.7;;;;;;;21.25;30.53809;940.3472;;;;
2020/04/05 13:55:40;;;;;;;9.9;6.6;;;;;;;20.4;31.35449;940.392;;;;
2020/04/05 13:58:05;;;;;;;11.3;7.1;;;;;;;19.94;33.01465;940.2723;;;;
2020/04/05 14:00:42;;;;;;;13.8;6.4;;;;;;;19.85;32.77441;940.2502;;;;
2020/04/05 14:02:56;;;;;;;9.2;6.5;;;;;;;19.96;32.78223;940.2791;;;;
2020/04/05 14:05:22;;;;;;;9;6.2;;;;;;;19.82;34.06738;940.3002;;;;
2020/04/05 14:07:46;;;;;;;9.3;6.5;;;;;;;19.97;32.57422;940.2505;;;;
2020/04/05 14:10:11;;;;;;;8.4;6.5;;;;;;;19.71;33.28906;940.2369;;;;
2020/04/05 14:12:36;;;;;;;9.5;6.3;;;;;;;19.89;32.13574;940.2225;;;;
2020/04/05 14:15:01;;;;;;;9;6.3;;;;;;;19.93;32.89648;940.1766;;;;
2020/04/05 14:17:30;;;;;;;11.2;6.8;;;;;;;19.9;32.18359;940.2772;;;;
2020/04/05 14:19:52;;;;;;;10.7;6.4;;;;;;;19.71;33.06641;940.2231;;;;
2020/04/05 14:22:39;;;;;;;13;6.8;;;;;;;19.66;33.30859;940.2146;;;;
2020/04/05 14:27:37;;;;;;;8.4;6.2;;;;;;;19.24;35.11719;940.2244;;;;
2020/04/05 14:32:05;;;;;;;10.8;6.2;;;;;;;18.98;34.78223;940.1177;;;;
2020/04/05 14:36:58;;;;;;;8.6;6.5;;;;;;;18.96;33.7793;940.0875;;;;
2020/04/05 14:41:48;;;;;;;10.2;6.5;;;;;;;18.68;35.39746;940.037;;;;
2020/04/05 14:44:16;;;;;;;8.5;6.2;;;;;;;18.93;35.05664;940.0324;;;;
2020/04/05 14:48:59;;;;;;;8;5.9;;;;;;;19.11;34.30273;939.9878;;;;
2020/04/05 14:51:18;;;;;;;9.4;6.5;;;;;;;19.04;34.05273;940.0442;;;;
2020/04/05 14:53:43;;;;;;;11.8;6.2;;;;;;;18.84;34.5498;940.0212;;;;